sensor_id;sensor_type;location;lat;lon;timestamp;pressure;altitude;pressure_sealevel;temperature;humidity
59767;BME280;46248;58.364;25.582;2023-03-25T00:00:19;98303.94;;;6.28;100.00
59767;BME280;46248;58.364;25.582;2023-03-25T00:03:42;98293.44;;;6.17;100.00
59767;BME280;46248;58.364;25.582;2023-03-25T00:07:07;98304.06;;;6.27;99.81
59767;BME280;46248;58.364;25.582;2023-03-25T00:10:29;98306.66;;;6.27;99.96
59767;BME280;46248;58.364;25.582;2023-03-25T00:13:52;98280.88;;;6.24;99.62
59767;BME280;46248;58.364;25.582;2023-03-25T00:17:14;98289.50;;;6.24;99.68
59767;BME280;46248;58.364;25.582;2023-03-25T00:20:37;98287.94;;;6.22;99.67
59767;BME280;46248;58.364;25.582;2023-03-25T00:24:03;98280.75;;;6.25;99.50
59767;BME280;46248;58.364;25.582;2023-03-25T00:27:25;98275.78;;;6.22;99.16
59767;BME280;46248;58.364;25.582;2023-03-25T00:30:47;98277.75;;;6.18;99.16
59767;BME280;46248;58.364;25.582;2023-03-25T00:34:09;98284.59;;;6.19;99.41
59767;BME280;46248;58.364;25.582;2023-03-25T00:37:34;98272.25;;;6.10;99.19
59767;BME280;46248;58.364;25.582;2023-03-25T00:40:57;98294.31;;;6.17;98.91
59767;BME280;46248;58.364;25.582;2023-03-25T00:44:19;98251.69;;;5.94;98.92
59767;BME280;46248;58.364;25.582;2023-03-25T00:47:42;98257.91;;;5.92;99.13
59767;BME280;46248;58.364;25.582;2023-03-25T00:51:04;98284.31;;;6.11;99.11
59767;BME280;46248;58.364;25.582;2023-03-25T00:54:29;98282.78;;;6.09;99.20
59767;BME280;46248;58.364;25.582;2023-03-25T00:57:55;98283.59;;;6.09;99.15
59767;BME280;46248;58.364;25.582;2023-03-25T01:01:18;98276.84;;;6.07;98.70
59767;BME280;46248;58.364;25.582;2023-03-25T01:04:43;98274.25;;;6.07;98.77
59767;BME280;46248;58.364;25.582;2023-03-25T01:08:05;98276.00;;;6.06;98.38
59767;BME280;46248;58.364;25.582;2023-03-25T01:11:29;98264.19;;;6.02;98.61
59767;BME280;46248;58.364;25.582;2023-03-25T01:14:55;98276.94;;;6.05;98.81
59767;BME280;46248;58.364;25.582;2023-03-25T01:18:17;98266.13;;;5.99;98.55
59767;BME280;46248;58.364;25.582;2023-03-25T01:21:42;98279.66;;;6.04;98.29
59767;BME280;46248;58.364;25.582;2023-03-25T01:25:05;98271.13;;;6.02;98.57
59767;BME280;46248;58.364;25.582;2023-03-25T01:28:27;98277.25;;;6.01;98.26
59767;BME280;46248;58.364;25.582;2023-03-25T01:31:50;98277.56;;;5.96;97.81
59767;BME280;46248;58.364;25.582;2023-03-25T01:35:13;98275.91;;;5.95;97.83
59767;BME280;46248;58.364;25.582;2023-03-25T01:38:35;98268.50;;;5.89;98.09
59767;BME280;46248;58.364;25.582;2023-03-25T01:41:57;98282.22;;;5.91;97.58
59767;BME280;46248;58.364;25.582;2023-03-25T01:45:25;98276.19;;;5.90;97.34
59767;BME280;46248;58.364;25.582;2023-03-25T01:48:50;98274.31;;;5.92;97.02
59767;BME280;46248;58.364;25.582;2023-03-25T01:52:13;98278.06;;;5.88;97.48
59767;BME280;46248;58.364;25.582;2023-03-25T01:55:37;98268.91;;;5.83;97.77
59767;BME280;46248;58.364;25.582;2023-03-25T01:59:04;98269.66;;;5.85;97.42
59767;BME280;46248;58.364;25.582;2023-03-25T02:02:30;98269.94;;;5.80;96.79
59767;BME280;46248;58.364;25.582;2023-03-25T02:05:59;98274.03;;;5.84;96.73
59767;BME280;46248;58.364;25.582;2023-03-25T02:09:24;98265.56;;;5.81;96.62
59767;BME280;46248;58.364;25.582;2023-03-25T02:12:46;98259.56;;;5.80;96.53
59767;BME280;46248;58.364;25.582;2023-03-25T02:16:22;98233.81;;;5.64;96.96
59767;BME280;46248;58.364;25.582;2023-03-25T02:20:13;98259.25;;;5.85;96.38
59767;BME280;46248;58.364;25.582;2023-03-25T02:28:08;98251.97;;;5.77;96.07
59767;BME280;46248;58.364;25.582;2023-03-25T02:31:46;98247.00;;;5.74;95.56
59767;BME280;46248;58.364;25.582;2023-03-25T02:35:25;98252.91;;;5.76;95.69
59767;BME280;46248;58.364;25.582;2023-03-25T02:38:52;98254.78;;;5.74;95.30
59767;BME280;46248;58.364;25.582;2023-03-25T02:42:22;98251.97;;;5.77;94.93
59767;BME280;46248;58.364;25.582;2023-03-25T02:45:48;98248.66;;;5.75;94.92
59767;BME280;46248;58.364;25.582;2023-03-25T02:49:17;98242.84;;;5.71;94.84
59767;BME280;46248;58.364;25.582;2023-03-25T02:52:43;98235.03;;;5.71;94.67
59767;BME280;46248;58.364;25.582;2023-03-25T02:56:11;98233.94;;;5.63;93.89
59767;BME280;46248;58.364;25.582;2023-03-25T02:59:37;98228.09;;;5.59;94.05
59767;BME280;46248;58.364;25.582;2023-03-25T03:03:02;98232.03;;;5.65;94.05
59767;BME280;46248;58.364;25.582;2023-03-25T03:06:24;98241.06;;;5.59;94.37
59767;BME280;46248;58.364;25.582;2023-03-25T03:09:53;98229.84;;;5.59;94.36
59767;BME280;46248;58.364;25.582;2023-03-25T03:13:24;98219.59;;;5.57;94.34
59767;BME280;46248;58.364;25.582;2023-03-25T03:16:53;98213.75;;;5.54;94.69
59767;BME280;46248;58.364;25.582;2023-03-25T03:20:24;98215.63;;;5.51;94.44
59767;BME280;46248;58.364;25.582;2023-03-25T03:23:56;98214.91;;;5.49;94.72
59767;BME280;46248;58.364;25.582;2023-03-25T03:27:26;98204.72;;;5.46;94.76
59767;BME280;46248;58.364;25.582;2023-03-25T03:30:59;98199.66;;;5.45;94.23
59767;BME280;46248;58.364;25.582;2023-03-25T03:34:28;98196.31;;;5.43;94.67
59767;BME280;46248;58.364;25.582;2023-03-25T03:37:57;98190.31;;;5.42;94.61
59767;BME280;46248;58.364;25.582;2023-03-25T03:41:22;98190.38;;;5.41;94.45
59767;BME280;46248;58.364;25.582;2023-03-25T03:44:49;98184.50;;;5.39;94.30
59767;BME280;46248;58.364;25.582;2023-03-25T03:48:17;98180.44;;;5.35;94.23
59767;BME280;46248;58.364;25.582;2023-03-25T03:51:44;98186.97;;;5.40;94.13
59767;BME280;46248;58.364;25.582;2023-03-25T03:55:10;98184.50;;;5.39;94.03
59767;BME280;46248;58.364;25.582;2023-03-25T03:58:35;98175.16;;;5.36;94.19
59767;BME280;46248;58.364;25.582;2023-03-25T04:02:02;98175.84;;;5.38;94.15
59767;BME280;46248;58.364;25.582;2023-03-25T04:05:27;98172.34;;;5.39;94.23
59767;BME280;46248;58.364;25.582;2023-03-25T04:08:54;98157.06;;;5.35;94.45
59767;BME280;46248;58.364;25.582;2023-03-25T04:12:22;98163.81;;;5.37;94.27
59767;BME280;46248;58.364;25.582;2023-03-25T04:15:45;98151.06;;;5.34;94.19
59767;BME280;46248;58.364;25.582;2023-03-25T04:19:08;98148.25;;;5.37;93.77
59767;BME280;46248;58.364;25.582;2023-03-25T04:22:34;98139.53;;;5.38;93.69
59767;BME280;46248;58.364;25.582;2023-03-25T04:25:58;98155.00;;;5.40;93.30
59767;BME280;46248;58.364;25.582;2023-03-25T04:29:22;98149.69;;;5.41;93.91
59767;BME280;46248;58.364;25.582;2023-03-25T04:32:45;98161.13;;;5.39;93.25
59767;BME280;46248;58.364;25.582;2023-03-25T04:36:09;98152.50;;;5.38;93.04
59767;BME280;46248;58.364;25.582;2023-03-25T04:39:32;98134.34;;;5.38;92.70
59767;BME280;46248;58.364;25.582;2023-03-25T04:42:54;98142.75;;;5.42;92.80
59767;BME280;46248;58.364;25.582;2023-03-25T04:46:17;98134.03;;;5.43;92.02
59767;BME280;46248;58.364;25.582;2023-03-25T04:49:39;98145.97;;;5.45;91.41
59767;BME280;46248;58.364;25.582;2023-03-25T04:53:04;98145.97;;;5.45;91.87
59767;BME280;46248;58.364;25.582;2023-03-25T04:56:27;98152.06;;;5.44;92.02
59767;BME280;46248;58.364;25.582;2023-03-25T04:59:49;98144.41;;;5.43;92.04
59767;BME280;46248;58.364;25.582;2023-03-25T05:03:11;98148.66;;;5.44;91.76
59767;BME280;46248;58.364;25.582;2023-03-25T05:06:36;98148.66;;;5.44;91.04
59767;BME280;46248;58.364;25.582;2023-03-25T05:09:59;98141.81;;;5.43;91.07
59767;BME280;46248;58.364;25.582;2023-03-25T05:13:23;98134.25;;;5.40;90.74
59767;BME280;46248;58.364;25.582;2023-03-25T05:16:46;98152.06;;;5.44;90.76
59767;BME280;46248;58.364;25.582;2023-03-25T05:20:09;98150.34;;;5.45;91.25
59767;BME280;46248;58.364;25.582;2023-03-25T05:23:31;98124.56;;;5.29;90.71
59767;BME280;46248;58.364;25.582;2023-03-25T05:26:53;98143.59;;;5.42;90.37
59767;BME280;46248;58.364;25.582;2023-03-25T05:30:16;98159.03;;;5.44;89.91
59767;BME280;46248;58.364;25.582;2023-03-25T05:33:38;98150.34;;;5.45;90.33
59767;BME280;46248;58.364;25.582;2023-03-25T05:37:02;98151.03;;;5.47;89.57
59767;BME280;46248;58.364;25.582;2023-03-25T05:40:24;98176.38;;;5.43;89.78
59767;BME280;46248;58.364;25.582;2023-03-25T05:43:46;98173.06;;;5.41;91.65
59767;BME280;46248;58.364;25.582;2023-03-25T05:47:11;98195.38;;;5.31;91.54
59767;BME280;46248;58.364;25.582;2023-03-25T05:50:34;98179.38;;;5.24;91.92
59767;BME280;46248;58.364;25.582;2023-03-25T05:53:58;98199.00;;;5.16;93.31
59767;BME280;46248;58.364;25.582;2023-03-25T05:57:21;98202.00;;;5.10;94.03
59767;BME280;46248;58.364;25.582;2023-03-25T06:00:43;98205.28;;;4.99;95.88
59767;BME280;46248;58.364;25.582;2023-03-25T06:04:08;98211.38;;;4.85;96.91
59767;BME280;46248;58.364;25.582;2023-03-25T06:07:32;98213.63;;;4.77;98.51
59767;BME280;46248;58.364;25.582;2023-03-25T06:10:55;98233.38;;;4.65;98.91
59767;BME280;46248;58.364;25.582;2023-03-25T06:14:20;98238.31;;;4.55;99.03
59767;BME280;46248;58.364;25.582;2023-03-25T06:17:45;98235.28;;;4.49;98.21
59767;BME280;46248;58.364;25.582;2023-03-25T06:21:08;98245.59;;;4.36;97.92
59767;BME280;46248;58.364;25.582;2023-03-25T06:24:31;98268.91;;;4.36;99.51
59767;BME280;46248;58.364;25.582;2023-03-25T06:27:53;98277.97;;;4.29;99.39
59767;BME280;46248;58.364;25.582;2023-03-25T06:31:19;98289.63;;;4.22;99.01
59767;BME280;46248;58.364;25.582;2023-03-25T06:34:41;98293.44;;;4.16;97.21
59767;BME280;46248;58.364;25.582;2023-03-25T06:38:06;98289.94;;;4.03;96.17
59767;BME280;46248;58.364;25.582;2023-03-25T06:41:29;98315.47;;;4.09;96.51
59767;BME280;46248;58.364;25.582;2023-03-25T06:44:51;98339.84;;;4.05;95.16
59767;BME280;46248;58.364;25.582;2023-03-25T06:48:13;98346.97;;;4.01;93.52
59767;BME280;46248;58.364;25.582;2023-03-25T06:51:35;98349.13;;;4.09;93.28
59767;BME280;46248;58.364;25.582;2023-03-25T06:54:58;98358.28;;;4.15;93.27
59767;BME280;46248;58.364;25.582;2023-03-25T06:58:20;98374.47;;;4.18;93.02
59767;BME280;46248;58.364;25.582;2023-03-25T07:01:42;98373.66;;;4.18;92.88
59767;BME280;46248;58.364;25.582;2023-03-25T07:05:05;98371.56;;;4.08;91.61
59767;BME280;46248;58.364;25.582;2023-03-25T07:08:27;98384.88;;;4.02;91.74
59767;BME280;46248;58.364;25.582;2023-03-25T07:11:50;98393.19;;;3.93;91.33
59767;BME280;46248;58.364;25.582;2023-03-25T07:15:12;98404.56;;;3.90;91.60
59767;BME280;46248;58.364;25.582;2023-03-25T07:18:34;98413.19;;;3.91;91.41
59767;BME280;46248;58.364;25.582;2023-03-25T07:21:56;98423.19;;;3.97;91.10
59767;BME280;46248;58.364;25.582;2023-03-25T07:25:18;98410.00;;;3.86;91.09
59767;BME280;46248;58.364;25.582;2023-03-25T07:28:42;98435.31;;;4.11;91.51
59767;BME280;46248;58.364;25.582;2023-03-25T07:32:05;98450.59;;;4.16;91.40
59767;BME280;46248;58.364;25.582;2023-03-25T07:35:28;98443.84;;;4.13;90.85
59767;BME280;46248;58.364;25.582;2023-03-25T07:38:50;98467.97;;;4.13;91.71
59767;BME280;46248;58.364;25.582;2023-03-25T07:42:16;98482.63;;;4.15;91.11
59767;BME280;46248;58.364;25.582;2023-03-25T07:45:39;98479.09;;;4.16;90.45
59767;BME280;46248;58.364;25.582;2023-03-25T07:49:15;98507.09;;;4.09;90.03
59767;BME280;46248;58.364;25.582;2023-03-25T07:52:37;98508.09;;;4.06;90.77
59767;BME280;46248;58.364;25.582;2023-03-25T07:55:59;98506.94;;;4.12;91.36
59767;BME280;46248;58.364;25.582;2023-03-25T07:59:21;98507.69;;;3.98;90.93
59767;BME280;46248;58.364;25.582;2023-03-25T08:02:44;98514.47;;;4.01;91.15
59767;BME280;46248;58.364;25.582;2023-03-25T08:06:07;98539.19;;;4.06;91.52
59767;BME280;46248;58.364;25.582;2023-03-25T08:09:29;98553.44;;;4.13;91.16
59767;BME280;46248;58.364;25.582;2023-03-25T08:12:52;98555.88;;;4.17;90.70
59767;BME280;46248;58.364;25.582;2023-03-25T08:16:14;98560.13;;;4.18;91.41
59767;BME280;46248;58.364;25.582;2023-03-25T08:19:37;98575.59;;;4.19;90.65
59767;BME280;46248;58.364;25.582;2023-03-25T08:22:59;98569.91;;;4.12;91.46
59767;BME280;46248;58.364;25.582;2023-03-25T08:26:22;98585.00;;;4.20;89.87
59767;BME280;46248;58.364;25.582;2023-03-25T08:29:45;98596.25;;;4.21;89.61
59767;BME280;46248;58.364;25.582;2023-03-25T08:33:16;98628.97;;;4.22;89.31
59767;BME280;46248;58.364;25.582;2023-03-25T08:36:40;98622.88;;;4.23;89.39
59767;BME280;46248;58.364;25.582;2023-03-25T08:40:02;98623.47;;;4.28;89.99
59767;BME280;46248;58.364;25.582;2023-03-25T08:43:27;98649.97;;;4.33;89.00
59767;BME280;46248;58.364;25.582;2023-03-25T08:46:49;98641.84;;;4.23;88.41
59767;BME280;46248;58.364;25.582;2023-03-25T08:50:11;98655.13;;;4.33;88.52
59767;BME280;46248;58.364;25.582;2023-03-25T08:53:35;98664.97;;;4.26;88.72
59767;BME280;46248;58.364;25.582;2023-03-25T08:56:57;98666.00;;;4.40;89.27
59767;BME280;46248;58.364;25.582;2023-03-25T09:00:19;98667.47;;;4.44;87.28
59767;BME280;46248;58.364;25.582;2023-03-25T09:03:43;98673.44;;;4.46;87.62
59767;BME280;46248;58.364;25.582;2023-03-25T09:07:06;98653.88;;;4.40;87.47
59767;BME280;46248;58.364;25.582;2023-03-25T09:10:33;98691.97;;;4.54;86.83
59767;BME280;46248;58.364;25.582;2023-03-25T09:13:59;98711.19;;;4.66;87.89
59767;BME280;46248;58.364;25.582;2023-03-25T09:17:23;98718.59;;;4.72;86.36
59767;BME280;46248;58.364;25.582;2023-03-25T09:20:45;98696.06;;;4.58;86.91
59767;BME280;46248;58.364;25.582;2023-03-25T09:24:08;98728.28;;;4.84;86.66
59767;BME280;46248;58.364;25.582;2023-03-25T09:27:33;98731.75;;;4.85;86.24
59767;BME280;46248;58.364;25.582;2023-03-25T09:30:58;98740.72;;;5.09;85.64
59767;BME280;46248;58.364;25.582;2023-03-25T09:34:20;98756.41;;;5.22;84.47
59767;BME280;46248;58.364;25.582;2023-03-25T09:37:42;98744.91;;;5.42;85.47
59767;BME280;46248;58.364;25.582;2023-03-25T09:41:18;98752.25;;;5.64;84.18
59767;BME280;46248;58.364;25.582;2023-03-25T09:44:52;98758.56;;;5.88;83.53
59767;BME280;46248;58.364;25.582;2023-03-25T09:48:23;98758.78;;;6.14;79.89
59767;BME280;46248;58.364;25.582;2023-03-25T09:51:50;98750.34;;;6.25;79.80
59767;BME280;46248;58.364;25.582;2023-03-25T09:55:17;98764.53;;;6.33;79.18
59767;BME280;46248;58.364;25.582;2023-03-25T09:58:43;98739.09;;;6.24;80.08
59767;BME280;46248;58.364;25.582;2023-03-25T10:02:19;98778.44;;;6.47;78.33
59767;BME280;46248;58.364;25.582;2023-03-25T10:10:14;98787.72;;;6.51;80.81
59767;BME280;46248;58.364;25.582;2023-03-25T10:13:47;98781.38;;;6.69;79.26
59767;BME280;46248;58.364;25.582;2023-03-25T10:17:16;98783.63;;;6.88;77.02
59767;BME280;46248;58.364;25.582;2023-03-25T10:20:47;98766.59;;;6.70;75.98
59767;BME280;46248;58.364;25.582;2023-03-25T10:24:17;98802.44;;;6.79;76.57
59767;BME280;46248;58.364;25.582;2023-03-25T10:27:43;98819.19;;;6.60;74.88
59767;BME280;46248;58.364;25.582;2023-03-25T10:31:09;98808.03;;;6.58;76.30
59767;BME280;46248;58.364;25.582;2023-03-25T10:34:38;98810.25;;;6.64;75.31
59767;BME280;46248;58.364;25.582;2023-03-25T10:38:11;98828.63;;;6.76;76.16
59767;BME280;46248;58.364;25.582;2023-03-25T10:41:36;98818.41;;;6.87;75.54
59767;BME280;46248;58.364;25.582;2023-03-25T10:44:58;98829.06;;;6.97;74.27
59767;BME280;46248;58.364;25.582;2023-03-25T10:48:23;98814.91;;;7.01;73.73
59767;BME280;46248;58.364;25.582;2023-03-25T10:51:50;98825.50;;;7.25;73.94
59767;BME280;46248;58.364;25.582;2023-03-25T10:55:22;98842.53;;;7.43;74.51
59767;BME280;46248;58.364;25.582;2023-03-25T10:58:48;98847.00;;;7.41;72.03
59767;BME280;46248;58.364;25.582;2023-03-25T11:02:15;98854.97;;;7.25;72.44
59767;BME280;46248;58.364;25.582;2023-03-25T11:05:39;98853.34;;;7.10;72.18
59767;BME280;46248;58.364;25.582;2023-03-25T11:09:16;98863.69;;;7.11;71.60
59767;BME280;46248;58.364;25.582;2023-03-25T11:12:43;98868.75;;;7.27;71.71
59767;BME280;46248;58.364;25.582;2023-03-25T11:16:09;98870.75;;;7.37;70.85
59767;BME280;46248;58.364;25.582;2023-03-25T11:19:38;98869.41;;;7.44;72.57
59767;BME280;46248;58.364;25.582;2023-03-25T11:23:05;98863.22;;;7.59;72.55
59767;BME280;46248;58.364;25.582;2023-03-25T11:26:35;98861.88;;;7.66;71.54
59767;BME280;46248;58.364;25.582;2023-03-25T11:30:01;98857.09;;;7.60;71.76
59767;BME280;46248;58.364;25.582;2023-03-25T11:33:24;98879.16;;;7.54;72.10
59767;BME280;46248;58.364;25.582;2023-03-25T11:36:51;98869.78;;;7.65;72.46
59767;BME280;46248;58.364;25.582;2023-03-25T11:40:16;98874.19;;;7.77;73.32
59767;BME280;46248;58.364;25.582;2023-03-25T11:43:40;98881.53;;;7.85;72.79
59767;BME280;46248;58.364;25.582;2023-03-25T11:47:04;98894.03;;;7.92;71.83
59767;BME280;46248;58.364;25.582;2023-03-25T11:50:28;98894.03;;;7.92;71.33
59767;BME280;46248;58.364;25.582;2023-03-25T11:53:55;98910.31;;;7.96;70.58
59767;BME280;46248;58.364;25.582;2023-03-25T11:57:21;98913.22;;;7.91;71.56
59767;BME280;46248;58.364;25.582;2023-03-25T12:00:48;98904.13;;;7.84;70.14
59767;BME280;46248;58.364;25.582;2023-03-25T12:04:16;98890.75;;;7.63;70.21
59767;BME280;46248;58.364;25.582;2023-03-25T12:07:41;98913.41;;;7.88;71.31
59767;BME280;46248;58.364;25.582;2023-03-25T12:11:07;98920.75;;;8.09;70.71
59767;BME280;46248;58.364;25.582;2023-03-25T12:14:44;98915.66;;;8.20;69.57
59767;BME280;46248;58.364;25.582;2023-03-25T12:18:24;98926.00;;;8.34;70.50
59767;BME280;46248;58.364;25.582;2023-03-25T12:35:41;98949.09;;;8.40;71.40
59767;BME280;46248;58.364;25.582;2023-03-25T12:39:17;98949.91;;;8.41;72.69
59767;BME280;46248;58.364;25.582;2023-03-25T12:43:04;98947.84;;;8.46;72.14
59767;BME280;46248;58.364;25.582;2023-03-25T12:50:44;98959.50;;;8.40;71.15
59767;BME280;46248;58.364;25.582;2023-03-25T12:54:23;98960.31;;;8.28;71.58
59767;BME280;46248;58.364;25.582;2023-03-25T12:58:00;98951.22;;;8.21;72.93
59767;BME280;46248;58.364;25.582;2023-03-25T13:01:35;98939.44;;;8.28;72.83
59767;BME280;46248;58.364;25.582;2023-03-25T13:05:04;98961.47;;;8.37;72.28
59767;BME280;46248;58.364;25.582;2023-03-25T13:08:40;98965.53;;;8.28;73.75
59767;BME280;46248;58.364;25.582;2023-03-25T13:12:09;98964.81;;;8.26;72.49
59767;BME280;46248;58.364;25.582;2023-03-25T13:15:35;98961.66;;;8.34;74.02
59767;BME280;46248;58.364;25.582;2023-03-25T13:19:01;98963.31;;;8.35;73.77
59767;BME280;46248;58.364;25.582;2023-03-25T13:22:28;98963.44;;;8.33;73.98
59767;BME280;46248;58.364;25.582;2023-03-25T13:25:55;98967.50;;;8.24;72.39
59767;BME280;46248;58.364;25.582;2023-03-25T13:29:25;98972.84;;;8.23;73.72
59767;BME280;46248;58.364;25.582;2023-03-25T13:32:52;98970.50;;;8.18;73.50
59767;BME280;46248;58.364;25.582;2023-03-25T13:36:19;98955.25;;;7.99;73.71
59767;BME280;46248;58.364;25.582;2023-03-25T13:43:29;98966.31;;;8.03;74.68
59767;BME280;46248;58.364;25.582;2023-03-25T13:46:57;98954.94;;;8.04;75.73
59767;BME280;46248;58.364;25.582;2023-03-25T13:50:25;98966.97;;;8.19;74.83
59767;BME280;46248;58.364;25.582;2023-03-25T13:53:51;98960.28;;;8.15;74.54
59767;BME280;46248;58.364;25.582;2023-03-25T14:01:37;98959.69;;;8.24;75.10
59767;BME280;46248;58.364;25.582;2023-03-25T14:13:09;98959.59;;;8.26;75.28
59767;BME280;46248;58.364;25.582;2023-03-25T14:16:40;98967.00;;;8.32;75.43
59767;BME280;46248;58.364;25.582;2023-03-25T14:20:03;98966.25;;;8.30;75.10
59767;BME280;46248;58.364;25.582;2023-03-25T14:23:29;98957.13;;;8.10;75.37
59767;BME280;46248;58.364;25.582;2023-03-25T14:26:54;98965.78;;;8.11;75.57
59767;BME280;46248;58.364;25.582;2023-03-25T14:30:22;98962.28;;;8.12;75.32
59767;BME280;46248;58.364;25.582;2023-03-25T14:34:22;98967.47;;;8.12;75.73
59767;BME280;46248;58.364;25.582;2023-03-25T14:37:44;98966.66;;;8.11;76.12
59767;BME280;46248;58.364;25.582;2023-03-25T14:41:07;98970.50;;;8.18;76.71
59767;BME280;46248;58.364;25.582;2023-03-25T14:44:31;98968.66;;;8.20;77.29
59767;BME280;46248;58.364;25.582;2023-03-25T14:47:53;98965.09;;;8.21;77.20
59767;BME280;46248;58.364;25.582;2023-03-25T14:51:42;98968.53;;;8.22;76.78
59767;BME280;46248;58.364;25.582;2023-03-25T14:55:08;98965.63;;;8.26;77.45
59767;BME280;46248;58.364;25.582;2023-03-25T14:58:32;98950.28;;;8.22;77.48
59767;BME280;46248;58.364;25.582;2023-03-25T15:02:13;98956.44;;;8.21;76.73
59767;BME280;46248;58.364;25.582;2023-03-25T15:05:37;98966.13;;;8.19;77.30
59767;BME280;46248;58.364;25.582;2023-03-25T15:12:41;98971.06;;;8.23;77.96
59767;BME280;46248;58.364;25.582;2023-03-25T15:16:05;98971.69;;;8.27;78.28
59767;BME280;46248;58.364;25.582;2023-03-25T15:20:12;98970.72;;;8.28;78.28
59767;BME280;46248;58.364;25.582;2023-03-25T15:23:46;98964.91;;;8.24;77.42
59767;BME280;46248;58.364;25.582;2023-03-25T15:27:17;98968.75;;;8.32;77.55
59767;BME280;46248;58.364;25.582;2023-03-25T15:31:03;98959.38;;;8.29;77.77
59767;BME280;46248;58.364;25.582;2023-03-25T15:34:44;98962.63;;;8.33;77.59
59767;BME280;46248;58.364;25.582;2023-03-25T15:42:09;98956.88;;;8.27;77.67
59767;BME280;46248;58.364;25.582;2023-03-25T15:46:00;98965.53;;;8.28;77.31
59767;BME280;46248;58.364;25.582;2023-03-25T15:49:38;98961.88;;;8.31;78.25
59767;BME280;46248;58.364;25.582;2023-03-25T15:53:23;98954.59;;;8.36;77.74
59767;BME280;46248;58.364;25.582;2023-03-25T15:57:05;98941.34;;;8.26;77.78
59767;BME280;46248;58.364;25.582;2023-03-25T16:00:31;98966.69;;;8.37;77.47
59767;BME280;46248;58.364;25.582;2023-03-25T16:03:58;98958.31;;;8.32;78.31
59767;BME280;46248;58.364;25.582;2023-03-25T16:07:23;98964.41;;;8.32;78.59
59767;BME280;46248;58.364;25.582;2023-03-25T16:10:48;98953.00;;;8.20;78.74
59767;BME280;46248;58.364;25.582;2023-03-25T16:14:12;98926.25;;;8.04;78.33
59767;BME280;46248;58.364;25.582;2023-03-25T16:17:34;98968.66;;;8.20;78.19
59767;BME280;46248;58.364;25.582;2023-03-25T16:20:59;98927.06;;;7.92;78.27
59767;BME280;46248;58.364;25.582;2023-03-25T16:24:25;98961.09;;;8.03;78.50
59767;BME280;46248;58.364;25.582;2023-03-25T16:27:53;98960.13;;;7.91;79.16
59767;BME280;46248;58.364;25.582;2023-03-25T16:31:28;98956.75;;;7.76;79.33
59767;BME280;46248;58.364;25.582;2023-03-25T16:34:54;98963.56;;;7.65;79.42
59767;BME280;46248;58.364;25.582;2023-03-25T16:38:18;98958.44;;;7.50;79.66
59767;BME280;46248;58.364;25.582;2023-03-25T16:41:47;98941.34;;;7.32;79.77
59767;BME280;46248;58.364;25.582;2023-03-25T16:45:12;98956.03;;;7.33;80.19
59767;BME280;46248;58.364;25.582;2023-03-25T16:48:36;98949.28;;;7.16;80.68
59767;BME280;46248;58.364;25.582;2023-03-25T16:52:01;98944.19;;;7.00;81.46
59767;BME280;46248;58.364;25.582;2023-03-25T16:55:29;98963.53;;;6.96;80.52
59767;BME280;46248;58.364;25.582;2023-03-25T16:59:00;98970.97;;;6.88;81.57
59767;BME280;46248;58.364;25.582;2023-03-25T17:02:26;98969.84;;;6.78;83.78
59767;BME280;46248;58.364;25.582;2023-03-25T17:06:00;98955.16;;;6.62;84.83
59767;BME280;46248;58.364;25.582;2023-03-25T17:09:26;98962.66;;;6.53;85.73
59767;BME280;46248;58.364;25.582;2023-03-25T17:12:55;98957.28;;;6.41;84.92
59767;BME280;46248;58.364;25.582;2023-03-25T17:16:21;98963.28;;;6.28;84.08
59767;BME280;46248;58.364;25.582;2023-03-25T17:19:44;98952.59;;;6.18;84.69
59767;BME280;46248;58.364;25.582;2023-03-25T17:23:18;98945.34;;;6.09;85.10
59767;BME280;46248;58.364;25.582;2023-03-25T17:26:53;98937.06;;;6.02;86.56
59767;BME280;46248;58.364;25.582;2023-03-25T17:30:18;98943.09;;;6.03;86.83
59767;BME280;46248;58.364;25.582;2023-03-25T17:33:50;98936.97;;;6.04;86.89
59767;BME280;46248;58.364;25.582;2023-03-25T17:37:23;98936.13;;;6.03;86.88
59767;BME280;46248;58.364;25.582;2023-03-25T17:40:45;98934.06;;;5.94;86.98
59767;BME280;46248;58.364;25.582;2023-03-25T17:44:11;98942.56;;;5.96;87.71
59767;BME280;46248;58.364;25.582;2023-03-25T17:47:35;98932.13;;;5.97;87.37
59767;BME280;46248;58.364;25.582;2023-03-25T17:50:59;98940.66;;;6.00;87.73
59767;BME280;46248;58.364;25.582;2023-03-25T17:54:22;98946.59;;;6.02;88.03
59767;BME280;46248;58.364;25.582;2023-03-25T17:57:44;98953.31;;;6.06;88.55
59767;BME280;46248;58.364;25.582;2023-03-25T18:01:10;98960.81;;;6.10;88.50
59767;BME280;46248;58.364;25.582;2023-03-25T18:04:32;98965.75;;;6.15;89.11
59767;BME280;46248;58.364;25.582;2023-03-25T18:07:56;98960.09;;;6.23;88.61
59767;BME280;46248;58.364;25.582;2023-03-25T18:11:19;98965.88;;;6.28;89.34
59767;BME280;46248;58.364;25.582;2023-03-25T18:14:42;98952.88;;;6.28;89.59
59767;BME280;46248;58.364;25.582;2023-03-25T18:18:05;98945.84;;;6.30;90.98
59767;BME280;46248;58.364;25.582;2023-03-25T18:21:27;98945.66;;;6.33;91.52
59767;BME280;46248;58.364;25.582;2023-03-25T18:24:50;98953.53;;;6.31;90.80
59767;BME280;46248;58.364;25.582;2023-03-25T18:28:13;98943.25;;;6.30;91.31
59767;BME280;46248;58.364;25.582;2023-03-25T18:31:35;98915.19;;;6.21;91.11
59767;BME280;46248;58.364;25.582;2023-03-25T18:34:57;98916.22;;;6.32;91.43
59767;BME280;46248;58.364;25.582;2023-03-25T18:38:21;98931.72;;;6.34;92.18
59767;BME280;46248;58.364;25.582;2023-03-25T18:41:46;98924.00;;;6.32;92.12
59767;BME280;46248;58.364;25.582;2023-03-25T18:45:09;98927.72;;;6.28;92.75
59767;BME280;46248;58.364;25.582;2023-03-25T18:48:31;98896.03;;;6.07;92.99
59767;BME280;46248;58.364;25.582;2023-03-25T18:51:53;98933.09;;;6.25;92.72
59767;BME280;46248;58.364;25.582;2023-03-25T18:55:17;98937.66;;;6.22;94.47
59767;BME280;46248;58.364;25.582;2023-03-25T18:58:40;98942.75;;;6.23;94.05
59767;BME280;46248;58.364;25.582;2023-03-25T19:02:02;98938.47;;;6.22;93.13